Cruise inventory

Prince Madog PM4DW14

Cruise plan

Cruise Info. 
Ship name (ship code)Prince Madog (74PD)
Cruise identifierPM4DW14
Cruise period1978-09-04 — 1978-09-08
StatusCompleted
Port of departureMenai Bridge, United Kingdom
Port of returnMenai Bridge, United Kingdom
ObjectivesLiverpool Bay Front Survey.
Chief scientistSteven P R Czitrom Baus (University of Wales, Bangor School of Ocean Sciences)
Ocean/sea areas 
GeneralIrish Sea and St. George's Channel
Track chartsPrince Madog PM4DW14 cruise track — trk_livbaysurv.pdf (00 MB) 
Measurements 
Physical oceanography 
CTD stationsQuantity: number of stations = 51
Data held at BODC 
Series/Profiles 
51  CTD/STD cast
Vertical spatial coordinates
Salinity of the water column
Temperature of the water column
Vertical spatial coordinates
Salinity of the water column
Temperature of the water column

BODC idDate/TimeLocationDoc.
665211978-09-06 13:22 53° 49' 1" N  4° 6' 57" W  View metadata report for BODC series reference number 66521
665331978-09-06 14:02 53° 48' 17" N  4° 12' 57" W  View metadata report for BODC series reference number 66533
665451978-09-06 14:40 53° 49' 19" N  4° 19' 33" W  View metadata report for BODC series reference number 66545
665571978-09-06 15:10 53° 54' 39" N  4° 31' 48" W  View metadata report for BODC series reference number 66557
665691978-09-06 16:12 53° 53' 2" N  4° 27' 7" W  View metadata report for BODC series reference number 66569
665701978-09-06 17:00 53° 57' 36" N  4° 27' 57" W  View metadata report for BODC series reference number 66570
665821978-09-07 09:55 53° 56' 38" N  4° 20' 20" W  View metadata report for BODC series reference number 66582
665941978-09-07 10:25 53° 56' 52" N  4° 13' 22" W  View metadata report for BODC series reference number 66594
666011978-09-07 11:03 53° 57' 3" N  4° 6' 46" W  View metadata report for BODC series reference number 66601
666131978-09-07 11:33 53° 56' 56" N  4° 0' 0" W  View metadata report for BODC series reference number 66613
666251978-09-07 12:15 53° 57' 3" N  3° 53' 49" W  View metadata report for BODC series reference number 66625
666371978-09-07 12:50 53° 57' 0" N  3° 47' 6" W  View metadata report for BODC series reference number 66637
660841978-09-04 18:40 53° 49' 12" N  3° 33' 36" W  View metadata report for BODC series reference number 66084
660961978-09-04 20:30 53° 41' 9" N  3° 19' 8" W  View metadata report for BODC series reference number 66096
661031978-09-04 21:52 53° 41' 6" N  3° 26' 38" W  View metadata report for BODC series reference number 66103
661151978-09-04 22:38 53° 41' 2" N  3° 33' 3" W  View metadata report for BODC series reference number 66115
661271978-09-05 00:18 53° 41' 6" N  3° 39' 25" W  View metadata report for BODC series reference number 66127
661391978-09-05 01:00 53° 41' 2" N  3° 46' 51" W  View metadata report for BODC series reference number 66139
661401978-09-05 02:15 53° 41' 20" N  3° 53' 56" W  View metadata report for BODC series reference number 66140
661521978-09-05 02:50 53° 41' 2" N  4° 0' 28" W  View metadata report for BODC series reference number 66152
661641978-09-05 03:55 53° 41' 38" N  4° 7' 22" W  View metadata report for BODC series reference number 66164
661761978-09-05 04:27 53° 41' 9" N  4° 14' 20" W  View metadata report for BODC series reference number 66176
661881978-09-05 05:28 53° 41' 16" N  4° 20' 49" W  View metadata report for BODC series reference number 66188
662071978-09-05 15:38 53° 33' 7" N  3° 26' 41" W  View metadata report for BODC series reference number 66207
662191978-09-05 16:14 53° 32' 42" N  3° 33' 18" W  View metadata report for BODC series reference number 66219
662201978-09-05 16:54 53° 32' 45" N  3° 40' 22" W  View metadata report for BODC series reference number 66220
662321978-09-05 17:26 53° 32' 52" N  3° 46' 44" W  View metadata report for BODC series reference number 66232
662441978-09-05 18:04 53° 32' 59" N  3° 53' 49" W  View metadata report for BODC series reference number 66244
662561978-09-05 18:40 53° 33' 3" N  4° 0' 21" W  View metadata report for BODC series reference number 66256
662681978-09-05 19:18 53° 33' 7" N  4° 7' 15" W  View metadata report for BODC series reference number 66268
662811978-09-05 19:55 53° 32' 49" N  4° 11' 49" W  View metadata report for BODC series reference number 66281
662931978-09-05 20:52 53° 32' 52" N  4° 20' 5" W  View metadata report for BODC series reference number 66293
663001978-09-05 21:50 53° 32' 49" N  4° 26' 2" W  View metadata report for BODC series reference number 66300
663121978-09-05 23:05 53° 41' 13" N  4° 26' 2" W  View metadata report for BODC series reference number 66312
663241978-09-05 23:47 53° 41' 9" N  4° 20' 31" W  View metadata report for BODC series reference number 66324
663361978-09-06 00:25 53° 41' 20" N  4° 13' 40" W  View metadata report for BODC series reference number 66336
663481978-09-06 01:12 53° 41' 6" N  4° 6' 50" W  View metadata report for BODC series reference number 66348
663611978-09-06 01:55 53° 41' 2" N  4° 0' 3" W  View metadata report for BODC series reference number 66361
663731978-09-06 02:43 53° 41' 13" N  3° 53' 42" W  View metadata report for BODC series reference number 66373
663851978-09-06 03:35 53° 40' 33" N  3° 46' 12" W  View metadata report for BODC series reference number 66385
663971978-09-06 04:18 53° 41' 13" N  3° 40' 22" W  View metadata report for BODC series reference number 66397
664041978-09-06 05:03 53° 40' 51" N  3° 33' 21" W  View metadata report for BODC series reference number 66404
664161978-09-06 05:49 53° 41' 6" N  3° 26' 16" W  View metadata report for BODC series reference number 66416
664281978-09-06 06:26 53° 41' 2" N  3° 20' 13" W  View metadata report for BODC series reference number 66428
664411978-09-06 07:10 53° 45' 14" N  3° 19' 44" W  View metadata report for BODC series reference number 66441
664531978-09-06 07:43 53° 49' 4" N  3° 19' 30" W  View metadata report for BODC series reference number 66453
664651978-09-06 09:15 53° 48' 53" N  3° 34' 19" W  View metadata report for BODC series reference number 66465
664771978-09-06 09:58 53° 49' 12" N  3° 39' 46" W  View metadata report for BODC series reference number 66477
664891978-09-06 10:40 53° 48' 57" N  3° 46' 26" W  View metadata report for BODC series reference number 66489
664901978-09-06 11:34 53° 49' 8" N  3° 52' 58" W  View metadata report for BODC series reference number 66490
665081978-09-06 12:20 53° 49' 8" N  4° 0' 0" W  View metadata report for BODC series reference number 66508